Russia, Ohio
Current Conditions -  °F | °C
As of 6:15 PM on Wednesday 17 Dec 2014 (Local Time) from KVES Reporting Station
Overcast Overcast  
Wind Chill: 15°   Ceiling: 1000
Heat Index: 27°   Visibility: 10mi
Dew Point: 25°   Wind: 14mph
Humidity: 93%   Direction: 300°WNW
Pressure: 30.22"   Gusts: NA
Location:  40.23°N, 84.41°W
Report Text: KVES 172315Z AUTO 30012KT 10SM OVC010 M03/M04 A3022 RMK AO2
Loading
Personal Weather Stations






























Interactive Weather Map New forecast layout! Learn more

10-Day Weather Forecast

Advertisements
Track Severe Weather on mobile